Time;durP1;ratioP1;P1;durP2;ratioP2;P2;SDS_P1;SDS_P2;PMS_P1;PMS_P2;Temp;Humidity;BMP_temperature;BMP_pressure;BME280_temperature;BME280_humidity;BME280_pressure;Samples;Min_cycle;Max_cycle;Signal;HPM_P1;HPM_P2
2023/06/21 00:01:14;;;;;;;;;;;18.60;75.50;;;-151.14;100.00;62537.16;5089279;28;20123;-85
2023/06/21 00:03:41;;;;;;;;;;;18.60;75.50;;;-151.14;100.00;62537.16;5072882;28;19942;-85
2023/06/21 00:06:10;;;;;;;;;;;18.60;75.30;;;-151.14;100.00;62537.16;5073023;28;20131;-85
2023/06/21 00:08:38;;;;;;;;;;;18.60;75.20;;;-151.14;100.00;62537.16;5089727;28;19939;-85
2023/06/21 00:11:06;;;;;;;;;;;18.60;75.20;;;17.76;100.00;62537.16;5089733;28;20212;-85
2023/06/21 00:13:34;;;;;;;;;;;18.60;75.10;;;-151.14;100.00;62537.16;5089680;28;19927;-85
2023/06/21 00:16:03;;;;;;;;;;;18.50;75.10;;;-151.14;100.00;62537.16;5089849;28;19926;-85
2023/06/21 00:18:31;;;;;;;;;;;18.50;75.10;;;-151.14;100.00;62537.16;5108066;28;19928;-85
2023/06/21 00:20:59;;;;;;;;;;;18.50;75.10;;;;;;5094457;28;19926;-85
2023/06/21 00:23:27;;;;;;;;;;;18.50;75.00;;;-151.14;100.00;62537.16;5092705;28;19927;-85
2023/06/21 00:25:55;;;;;;;;;;;18.50;75.10;;;-151.14;100.00;62537.16;5094068;28;19920;-85
2023/06/21 00:28:23;;;;;;;;;;;18.50;75.00;;;-151.14;100.00;62537.16;5094417;28;19973;-85
2023/06/21 00:30:51;;;;;;;;;;;18.50;75.00;;;-151.14;100.00;62537.16;5094045;28;20222;-85
2023/06/21 00:33:20;;;;;;;;;;;18.50;75.00;;;-151.14;100.00;62537.16;5075587;28;19920;-84
2023/06/21 00:35:48;;;;;;;;;;;18.50;75.00;;;-151.14;100.00;62537.16;5075887;28;19920;-84
2023/06/21 00:38:18;;;;;;;;;;;18.50;75.00;;;-151.14;100.00;62537.16;5076333;28;19920;-84
2023/06/21 00:40:49;;;;;;;;;;;18.50;74.90;;;-151.14;100.00;62537.16;5076131;28;19920;-84
2023/06/21 00:43:17;;;;;;;;;;;18.50;74.80;;;-151.14;100.00;62537.16;5075540;28;19920;-84
2023/06/21 00:45:48;;;;;;;;;;;18.50;74.80;;;-151.14;100.00;62537.16;5075847;28;19926;-83
2023/06/21 00:48:16;;;;;;;;;;;18.50;74.80;;;-151.14;100.00;62537.16;5094106;28;19920;-85
2023/06/21 00:50:45;;;;;;;;;;;18.50;74.90;;;-151.14;100.00;62537.16;5075743;28;19920;-85
2023/06/21 00:53:13;;;;;;;;;;;18.50;75.00;;;-151.14;100.00;62537.16;5092355;28;19927;-83
2023/06/21 00:55:41;;;;;;;;;;;18.50;74.90;;;-151.14;100.00;62537.16;5075721;28;19920;-84
2023/06/21 00:58:09;;;;;;;;;;;18.40;74.70;;;;;;5075814;28;19920;-84
2023/06/21 01:00:37;;;;;;;;;;;18.50;74.80;;;-151.14;100.00;62537.16;5093746;28;19926;-84
2023/06/21 01:03:06;;;;;;;;;;;18.40;74.60;;;18.10;100.00;62537.16;5093342;28;19926;-84
2023/06/21 01:05:34;;;;;;;;;;;18.40;74.50;;;-151.14;100.00;62537.16;5092336;28;20120;-84
2023/06/21 01:08:06;;;;;;;;;;;18.40;74.50;;;-151.14;100.00;62537.16;5075752;28;19959;-84
2023/06/21 01:10:47;;;;;;;;;;;18.40;74.80;;;17.61;100.00;62537.16;5092495;28;20204;-84
2023/06/21 01:13:24;;;;;;;;;;;18.40;75.00;;;-151.14;100.00;62537.16;5088684;28;19920;-84
2023/06/21 01:15:55;;;;;;;;;;;18.50;75.00;;;-151.14;100.00;62537.16;5071981;28;19942;-84
2023/06/21 01:18:23;;;;;;;;;;;18.40;74.70;;;-151.14;100.00;62537.16;5106017;28;19942;-84
2023/06/21 01:20:53;;;;;;;;;;;18.40;74.70;;;-151.14;100.00;62537.16;5055361;28;19920;-83
2023/06/21 01:23:38;;;;;;;;;;;18.40;74.70;;;-151.14;100.00;62537.16;5088231;28;19927;-84
2023/06/21 01:26:11;;;;;;;;;;;18.40;74.70;;;-151.14;100.00;62537.16;5055302;28;19927;-84
2023/06/21 01:29:03;;;;;;;;;;;18.40;74.50;;;18.08;100.00;62537.16;5105454;28;19921;-84
2023/06/21 01:31:31;;;;;;;;;;;18.40;74.40;;;-151.14;100.00;62537.16;5105100;28;19927;-84
2023/06/21 01:33:59;;;;;;;;;;;18.40;74.40;;;-151.14;100.00;62537.16;5071887;28;19927;-84
2023/06/21 01:36:27;;;;;;;;;;;18.40;74.40;;;-151.14;100.00;62537.16;5071580;28;19986;-84
2023/06/21 01:38:55;;;;;;;;;;;18.40;74.50;;;-151.14;100.00;62537.16;5072307;28;19919;-84
2023/06/21 01:41:25;;;;;;;;;;;18.40;74.50;;;60.43;100.00;62537.16;5054547;28;19921;-83
2023/06/21 01:43:54;;;;;;;;;;;18.40;74.50;;;-151.14;100.00;62537.16;5071953;28;19927;-85
2023/06/21 01:46:23;;;;;;;;;;;18.30;74.50;;;-151.14;100.00;62537.16;5088151;28;19926;-84
2023/06/21 01:48:52;;;;;;;;;;;18.30;74.40;;;17.55;100.00;62537.16;5055560;28;19927;-84
2023/06/21 01:51:20;;;;;;;;;;;18.30;74.40;;;-151.14;100.00;62537.16;5087768;28;20090;-84
2023/06/21 01:53:48;;;;;;;;;;;18.30;74.50;;;-151.14;100.00;62537.16;5071773;28;19921;-84
2023/06/21 01:56:17;;;;;;;;;;;18.30;74.70;;;-151.14;100.00;62537.16;5071567;28;19921;-84
2023/06/21 01:58:46;;;;;;;;;;;18.30;74.60;;;-151.14;100.00;62537.16;5074996;28;19969;-84
2023/06/21 02:01:15;;;;;;;;;;;18.30;74.50;;;-151.14;100.00;62537.16;5074114;28;19927;-85
2023/06/21 02:03:45;;;;;;;;;;;18.30;75.40;;;-151.14;100.00;62537.16;5075090;28;20202;-84
2023/06/21 02:06:14;;;;;;;;;;;18.30;74.60;;;17.53;100.00;62537.16;5091412;28;19926;-84
2023/06/21 02:08:42;;;;;;;;;;;18.30;74.60;;;-151.14;100.00;62537.16;5108403;28;20120;-84
2023/06/21 02:11:10;;;;;;;;;;;18.30;74.50;;;-151.14;100.00;62537.16;5073946;28;19928;-84
2023/06/21 02:13:38;;;;;;;;;;;18.30;74.70;;;-151.14;100.00;62537.16;5091532;28;19920;-84
2023/06/21 02:16:06;;;;;;;;;;;18.30;74.60;;;-151.14;100.00;62537.16;5074524;28;19921;-84
2023/06/21 02:18:35;;;;;;;;;;;18.30;74.70;;;60.43;100.00;62537.16;5108174;28;19920;-84
2023/06/21 02:21:05;;;;;;;;;;;18.30;74.60;;;-151.14;100.00;62537.16;5074197;28;20208;-84
2023/06/21 02:23:33;;;;;;;;;;;18.30;74.60;;;-151.14;100.00;62537.16;5091765;28;19920;-84
2023/06/21 02:26:01;;;;;;;;;;;18.30;74.70;;;-151.14;100.00;62537.16;5091227;28;19920;-84
2023/06/21 02:28:29;;;;;;;;;;;18.30;74.60;;;-151.14;100.00;62537.16;5091321;28;19920;-84
2023/06/21 02:30:57;;;;;;;;;;;18.30;74.70;;;-151.14;100.00;62537.16;5091123;28;20109;-85
2023/06/21 02:33:27;;;;;;;;;;;18.30;74.70;;;-151.14;100.00;62537.16;5074018;28;19927;-85
2023/06/21 02:35:55;;;;;;;;;;;18.30;74.60;;;-151.14;100.00;62537.16;5074162;28;19930;-85
2023/06/21 02:38:25;;;;;;;;;;;18.30;74.60;;;-151.14;100.00;62537.16;5092309;28;19927;-85
2023/06/21 02:40:54;;;;;;;;;;;18.30;75.40;;;-151.14;100.00;62537.16;5073650;28;19920;-85
2023/06/21 02:43:25;;;;;;;;;;;18.30;74.50;;;-151.14;100.00;62537.16;5073991;28;19926;-84
2023/06/21 02:45:54;;;;;;;;;;;18.30;74.50;;;-151.14;100.00;62537.16;5107684;28;19920;-85
2023/06/21 02:48:22;;;;;;;;;;;18.30;74.40;;;18.08;100.00;62537.16;5074233;28;19921;-84
2023/06/21 02:50:50;;;;;;;;;;;18.30;74.30;;;-151.14;100.00;62537.16;5092044;28;19926;-85
2023/06/21 02:53:18;;;;;;;;;;;18.30;74.40;;;-151.14;100.00;62537.16;5089729;28;19920;-85
2023/06/21 02:55:47;;;;;;;;;;;18.30;74.40;;;-151.14;100.00;62537.16;5072942;28;19920;-85
2023/06/21 02:58:15;;;;;;;;;;;18.20;74.30;;;;;;5073512;28;19920;-84
2023/06/21 03:00:43;;;;;;;;;;;18.30;74.50;;;-151.14;100.00;62537.16;5090886;28;20185;-84
2023/06/21 03:03:11;;;;;;;;;;;18.30;74.40;;;-151.14;100.00;62537.16;5090255;28;20115;-84
2023/06/21 03:05:39;;;;;;;;;;;18.30;74.50;;;-151.14;100.00;62537.16;5090665;28;19920;-85
2023/06/21 03:08:07;;;;;;;;;;;18.30;74.60;;;-151.14;100.00;62537.16;5074027;28;19920;-85
2023/06/21 03:10:39;;;;;;;;;;;18.30;74.70;;;-151.14;100.00;62537.16;5087075;28;19927;-84
2023/06/21 03:13:09;;;;;;;;;;;18.30;74.70;;;-151.14;100.00;62537.16;5069751;28;19920;-84
2023/06/21 03:15:38;;;;;;;;;;;18.30;74.70;;;-151.14;100.00;62537.16;5053670;28;19920;-84
2023/06/21 03:18:07;;;;;;;;;;;18.30;74.60;;;-151.14;100.00;62537.16;5053842;28;19921;-85
2023/06/21 03:20:36;;;;;;;;;;;18.30;74.50;;;-151.14;100.00;62537.16;5086846;28;19927;-84
2023/06/21 03:23:04;;;;;;;;;;;18.30;74.60;;;-151.14;100.00;62537.16;5053085;28;19920;-85
2023/06/21 03:25:32;;;;;;;;;;;18.30;74.50;;;-151.14;100.00;62537.16;5070004;28;19920;-84
2023/06/21 03:28:00;;;;;;;;;;;18.30;74.40;;;-151.14;100.00;62537.16;5070176;28;19920;-84
2023/06/21 03:30:30;;;;;;;;;;;18.30;74.50;;;-151.14;100.00;62537.16;5087018;28;19927;-84
2023/06/21 03:33:00;;;;;;;;;;;18.30;74.50;;;-151.14;100.00;62537.16;5052628;28;19920;-84
2023/06/21 03:35:29;;;;;;;;;;;18.30;74.50;;;-151.14;100.00;62537.16;5053521;28;19920;-84
2023/06/21 03:37:57;;;;;;;;;;;18.30;74.50;;;-151.14;100.00;62537.16;5071200;28;20131;-84
2023/06/21 03:40:32;;;;;;;;;;;18.30;74.50;;;-151.14;100.00;62537.16;5103911;28;19921;-85
2023/06/21 03:43:00;;;;;;;;;;;18.30;74.50;;;-151.14;100.00;62537.16;5070433;28;19920;-84
2023/06/21 03:45:30;;;;;;;;;;;18.30;74.50;;;-151.14;100.00;62537.16;5069726;28;19926;-84
2023/06/21 03:48:04;;;;;;;;;;;18.30;74.60;;;-151.14;100.00;62537.16;5064035;28;19920;-84
2023/06/21 03:50:33;;;;;;;;;;;18.30;74.70;;;-151.14;100.00;62537.16;5090254;28;19920;-84
2023/06/21 03:53:01;;;;;;;;;;;18.30;74.50;;;-151.14;100.00;62537.16;5091434;28;19920;-84
2023/06/21 03:55:29;;;;;;;;;;;18.30;74.60;;;-151.14;100.00;62537.16;5076815;28;19927;-84
2023/06/21 03:57:57;;;;;;;;;;;18.30;74.70;;;-151.14;100.00;62537.16;5093396;28;19927;-85
2023/06/21 04:00:26;;;;;;;;;;;18.30;74.60;;;-151.14;100.00;62537.16;5093647;28;19927;-85
2023/06/21 04:02:57;;;;;;;;;;;18.30;74.70;;;-151.14;100.00;62537.16;5076075;28;19920;-84
2023/06/21 04:05:25;;;;;;;;;;;18.30;74.60;;;18.08;100.00;62537.16;5093274;28;19920;-84
2023/06/21 04:07:53;;;;;;;;;;;18.30;74.70;;;-151.14;100.00;62537.16;5076731;28;19920;-85
2023/06/21 04:10:21;;;;;;;;;;;18.30;74.80;;;-151.14;100.00;62537.16;5093348;28;19920;-84
2023/06/21 04:12:49;;;;;;;;;;;18.30;74.80;;;-151.14;100.00;62537.16;5092597;28;19920;-84
2023/06/21 04:15:17;;;;;;;;;;;18.30;74.80;;;-151.14;100.00;62537.16;5110277;28;20403;-84
2023/06/21 04:17:45;;;;;;;;;;;18.40;74.80;;;-151.14;100.00;62537.16;5076584;28;19927;-84
2023/06/21 04:20:15;;;;;;;;;;;18.40;74.90;;;-151.14;100.00;62537.16;5076615;28;19920;-84
2023/06/21 04:22:44;;;;;;;;;;;18.40;75.10;;;-151.14;100.00;62537.16;5092446;28;19920;-85
2023/06/21 04:25:12;;;;;;;;;;;18.40;75.10;;;-151.14;100.00;62537.16;5076543;28;19920;-84
2023/06/21 04:27:40;;;;;;;;;;;18.40;75.10;;;-151.14;100.00;62537.16;5092863;28;19920;-84
2023/06/21 04:30:10;;;;;;;;;;;18.40;75.20;;;-151.14;100.00;62537.16;5092980;28;19920;-84
2023/06/21 04:32:44;;;;;;;;;;;18.40;75.00;;;-151.14;100.00;62537.16;5092445;28;19920;-84
2023/06/21 04:35:15;;;;;;;;;;;18.50;75.10;;;-151.14;100.00;62537.16;5093994;28;20115;-84
2023/06/21 04:37:44;;;;;;;;;;;18.50;75.10;;;-151.14;100.00;62537.16;5076008;28;19920;-84
2023/06/21 04:40:15;;;;;;;;;;;18.50;75.20;;;-151.14;100.00;62537.16;5092881;28;20212;-85
2023/06/21 04:42:43;;;;;;;;;;;18.50;75.30;;;187.61;100.00;62537.16;5092230;28;20123;-84
2023/06/21 04:45:14;;;;;;;;;;;18.50;75.40;;;-151.14;100.00;62537.16;5092850;28;19920;-84
2023/06/21 04:47:42;;;;;;;;;;;18.60;75.30;;;-151.14;100.00;62537.16;5092855;28;19920;-84
2023/06/21 04:50:10;;;;;;;;;;;18.60;75.30;;;17.91;100.00;62537.16;5076093;28;19926;-84
2023/06/21 04:52:40;;;;;;;;;;;18.60;75.30;;;18.16;100.00;62537.16;5075080;28;19926;-84
2023/06/21 04:55:09;;;;;;;;;;;18.70;75.40;;;-151.14;100.00;62537.16;5075859;28;20254;-85
2023/06/21 04:57:37;;;;;;;;;;;18.70;75.20;;;-151.14;100.00;62537.16;5075740;28;19920;-84
2023/06/21 05:00:07;;;;;;;;;;;18.80;75.10;;;-151.14;100.00;62537.16;5093660;28;19927;-84
2023/06/21 05:02:35;;;;;;;;;;;18.80;75.00;;;-151.14;100.00;62537.16;5075235;28;20112;-84
2023/06/21 05:05:03;;;;;;;;;;;18.90;75.00;;;-151.14;100.00;62537.16;5074971;28;19920;-84
2023/06/21 05:07:31;;;;;;;;;;;18.90;75.00;;;-151.14;100.00;62537.16;5109548;28;20089;-85
2023/06/21 05:10:01;;;;;;;;;;;18.90;74.90;;;-151.14;100.00;62537.16;5092367;28;20212;-84
2023/06/21 05:12:29;;;;;;;;;;;19.00;74.80;;;-151.14;100.00;62537.16;5091842;28;19928;-84
2023/06/21 05:14:57;;;;;;;;;;;19.00;74.70;;;28.66;100.00;62537.16;5092288;28;19939;-85
2023/06/21 05:17:25;;;;;;;;;;;19.00;74.60;;;-151.14;100.00;62537.16;5075647;28;20228;-84
2023/06/21 05:19:53;;;;;;;;;;;19.00;74.60;;;-151.14;100.00;62537.16;5075736;28;19920;-84
2023/06/21 05:22:21;;;;;;;;;;;19.10;74.60;;;-151.14;100.00;62537.16;5087480;28;19920;-84
2023/06/21 05:24:48;;;;;;;;;;;19.10;74.60;;;39.25;100.00;62537.16;5093375;28;19926;-84
2023/06/21 05:27:18;;;;;;;;;;;19.10;74.50;;;18.35;100.00;62537.16;5075516;28;19942;-84
2023/06/21 05:29:46;;;;;;;;;;;19.20;74.50;;;-151.14;100.00;62537.16;5075317;28;19920;-83
2023/06/21 05:32:14;;;;;;;;;;;19.20;74.40;;;-151.14;100.00;62537.16;5074790;28;20127;-84
2023/06/21 05:34:42;;;;;;;;;;;19.20;74.40;;;-151.14;100.00;62537.16;5091634;28;19920;-84
2023/06/21 05:37:10;;;;;;;;;;;19.20;74.30;;;-151.14;100.00;62537.16;5075418;28;19933;-84
2023/06/21 05:39:38;;;;;;;;;;;19.20;74.40;;;-151.14;100.00;62537.16;5091881;28;20232;-84
2023/06/21 05:42:06;;;;;;;;;;;19.20;74.40;;;-151.14;100.00;62537.16;5092486;28;19920;-84
2023/06/21 05:44:35;;;;;;;;;;;19.20;74.50;;;18.48;100.00;62537.16;5091846;28;19926;-84
2023/06/21 05:47:04;;;;;;;;;;;19.20;74.40;;;-151.14;100.00;62537.16;5075187;28;19920;-84
2023/06/21 05:49:32;;;;;;;;;;;19.20;74.50;;;19.40;100.00;62537.16;5108736;28;20232;-84
2023/06/21 05:52:00;;;;;;;;;;;19.30;74.50;;;-151.14;100.00;62537.16;5092321;28;19938;-84
2023/06/21 05:54:28;;;;;;;;;;;19.30;74.60;;;-151.14;100.00;62537.16;5091627;28;20219;-84
2023/06/21 05:56:56;;;;;;;;;;;19.30;74.60;;;-151.14;100.00;62537.16;5075030;28;19931;-84
2023/06/21 05:59:24;;;;;;;;;;;19.30;74.70;;;-151.14;100.00;62537.16;5074819;28;19930;-84
2023/06/21 06:01:53;;;;;;;;;;;19.30;74.60;;;18.08;100.00;62537.16;5091201;28;19920;-84
2023/06/21 06:04:21;;;;;;;;;;;19.40;74.80;;;-151.14;100.00;62537.16;5074732;28;19920;-85
2023/06/21 06:06:49;;;;;;;;;;;19.40;74.50;;;;;;5074954;28;20238;-85
2023/06/21 06:09:16;;;;;;;;;;;19.40;74.50;;;-151.14;100.00;62537.16;5074656;28;19920;-84
2023/06/21 06:11:44;;;;;;;;;;;19.40;74.50;;;18.10;100.00;62537.16;5091190;28;19927;-84
2023/06/21 06:14:12;;;;;;;;;;;19.50;75.40;;;-151.14;100.00;62537.16;5091441;28;20116;-84
2023/06/21 06:16:40;;;;;;;;;;;19.50;74.60;;;-151.14;100.00;62537.16;5073611;28;19920;-84
2023/06/21 06:19:11;;;;;;;;;;;19.50;74.60;;;-151.14;100.00;62537.16;5091274;28;20215;-84
2023/06/21 06:21:39;;;;;;;;;;;19.60;74.60;;;-151.14;100.00;62537.16;5074181;28;20233;-83
2023/06/21 06:24:07;;;;;;;;;;;19.60;74.40;;;-151.14;100.00;62537.16;5092072;28;19920;-84
2023/06/21 06:26:35;;;;;;;;;;;19.60;74.60;;;-151.14;100.00;62537.16;5091261;28;20115;-84
2023/06/21 06:29:03;;;;;;;;;;;19.70;74.40;;;-151.14;100.00;62537.16;5092318;28;20234;-84
2023/06/21 06:31:31;;;;;;;;;;;19.70;74.30;;;-151.14;100.00;62537.16;5090658;28;20234;-84
2023/06/21 06:33:59;;;;;;;;;;;19.70;74.20;;;-151.14;100.00;62537.16;5074504;28;19920;-84
2023/06/21 06:36:28;;;;;;;;;;;19.80;74.30;;;-151.14;100.00;62537.16;5074258;28;20204;-84
2023/06/21 06:38:56;;;;;;;;;;;19.80;74.10;;;-151.14;100.00;62537.16;5074022;28;19928;-84
2023/06/21 06:41:24;;;;;;;;;;;19.80;74.10;;;-151.14;100.00;62537.16;5073830;28;19920;-84
2023/06/21 06:43:54;;;;;;;;;;;19.90;74.30;;;-151.14;100.00;62537.16;5074177;28;19924;-84
2023/06/21 06:46:22;;;;;;;;;;;19.80;74.50;;;-151.14;100.00;62537.16;5090737;28;19926;-84
2023/06/21 06:48:50;;;;;;;;;;;19.90;74.30;;;-151.14;100.00;62537.16;5091046;28;20207;-84
2023/06/21 06:51:18;;;;;;;;;;;19.90;74.00;;;-151.14;100.00;62537.16;5073351;28;19920;-84
2023/06/21 06:53:48;;;;;;;;;;;19.90;74.00;;;-151.14;100.00;62537.16;5090741;28;20227;-84
2023/06/21 06:56:16;;;;;;;;;;;19.90;73.90;;;-151.14;100.00;62537.16;5073941;28;19921;-83
2023/06/21 06:58:43;;;;;;;;;;;20.00;74.00;;;-151.14;100.00;62537.16;5074018;28;19920;-84
2023/06/21 07:01:13;;;;;;;;;;;20.00;73.80;;;-151.14;100.00;62537.16;5091237;28;19927;-84
2023/06/21 07:03:41;;;;;;;;;;;20.00;73.70;;;-151.14;100.00;62537.16;5090853;28;20135;-84
2023/06/21 07:06:08;;;;;;;;;;;20.00;73.50;;;-151.14;100.00;62537.16;5091596;28;19934;-84
2023/06/21 07:08:37;;;;;;;;;;;20.00;73.30;;;-151.14;100.00;62537.16;5107667;28;19924;-84
2023/06/21 07:11:06;;;;;;;;;;;20.10;73.50;;;-151.14;100.00;62537.16;5090379;28;19920;-84
2023/06/21 07:13:34;;;;;;;;;;;20.10;73.40;;;-151.14;100.00;62537.16;5090641;28;20212;-84
2023/06/21 07:16:02;;;;;;;;;;;20.10;73.40;;;-151.14;100.00;62537.16;5090476;28;19927;-84
2023/06/21 07:18:30;;;;;;;;;;;20.10;73.30;;;-151.14;100.00;62537.16;5090580;28;19942;-85
2023/06/21 07:20:58;;;;;;;;;;;20.10;73.20;;;-151.14;100.00;62537.16;5073581;28;19931;-84
2023/06/21 07:23:27;;;;;;;;;;;20.10;73.20;;;-151.14;100.00;62537.16;5094850;28;19952;-84
2023/06/21 07:25:55;;;;;;;;;;;20.20;73.40;;;-151.14;100.00;62537.16;5091617;28;20204;-84
2023/06/21 07:28:24;;;;;;;;;;;20.20;73.30;;;-151.14;100.00;62537.16;5090066;28;19920;-84
2023/06/21 07:30:52;;;;;;;;;;;20.20;73.60;;;-151.14;100.00;62537.16;5073442;28;19920;-84
2023/06/21 07:33:21;;;;;;;;;;;20.20;73.60;;;-151.14;100.00;62537.16;5089612;28;20120;-84
2023/06/21 07:35:49;;;;;;;;;;;20.20;73.50;;;-151.14;100.00;62537.16;5073238;28;19920;-84
2023/06/21 07:38:19;;;;;;;;;;;20.20;73.40;;;-151.14;100.00;62537.16;5090103;28;20136;-84
2023/06/21 07:40:47;;;;;;;;;;;20.20;73.80;;;18.10;100.00;62537.16;5090398;28;19920;-84
2023/06/21 07:43:15;;;;;;;;;;;20.20;74.00;;;-151.14;100.00;62537.16;5089754;28;19920;-85
2023/06/21 07:45:44;;;;;;;;;;;20.20;74.00;;;-151.14;100.00;62537.16;5089851;28;19920;-84
2023/06/21 07:48:12;;;;;;;;;;;20.20;73.60;;;-151.14;100.00;62537.16;5089815;28;19920;-83
2023/06/21 07:50:40;;;;;;;;;;;20.30;73.90;;;-151.14;100.00;62537.16;5072894;28;19920;-84
2023/06/21 07:53:08;;;;;;;;;;;20.30;73.90;;;18.09;100.00;62537.16;5072635;28;19920;-85
2023/06/21 07:55:36;;;;;;;;;;;20.30;73.70;;;-151.14;100.00;62537.16;5090069;28;19935;-85
2023/06/21 07:58:04;;;;;;;;;;;20.30;74.00;;;-151.14;100.00;62537.16;5089950;28;19920;-85
2023/06/21 08:00:32;;;;;;;;;;;20.30;74.20;;;-151.14;100.00;62537.16;5089829;28;19927;-84
2023/06/21 08:03:02;;;;;;;;;;;20.30;74.50;;;18.41;100.00;62537.16;5072547;28;19920;-85
2023/06/21 08:05:30;;;;;;;;;;;20.30;74.50;;;-151.14;100.00;62537.16;5089944;28;19942;-84
2023/06/21 08:08:01;;;;;;;;;;;20.30;74.50;;;-151.14;100.00;62537.16;5090947;28;19924;-84
2023/06/21 08:10:30;;;;;;;;;;;20.30;74.40;;;-151.14;100.00;62537.16;5089866;28;20120;-85
2023/06/21 08:12:58;;;;;;;;;;;20.30;74.30;;;-151.14;100.00;62537.16;5089379;28;20212;-84
2023/06/21 08:15:26;;;;;;;;;;;20.40;74.50;;;18.08;100.00;62537.16;5089607;28;19920;-85
2023/06/21 08:17:54;;;;;;;;;;;20.40;74.40;;;-151.14;100.00;62537.16;5089768;28;19920;-84
2023/06/21 08:20:23;;;;;;;;;;;20.40;74.20;;;-151.14;100.00;62537.16;5089673;28;19920;-84
2023/06/21 08:22:51;;;;;;;;;;;20.40;74.30;;;-151.14;100.00;62537.16;5090353;28;19920;-84
2023/06/21 08:25:19;;;;;;;;;;;20.40;74.20;;;-151.14;100.00;62537.16;5089556;28;19934;-84
2023/06/21 08:27:47;;;;;;;;;;;20.40;74.10;;;-151.14;100.00;62537.16;5089469;28;19951;-84
2023/06/21 08:30:15;;;;;;;;;;;20.40;74.20;;;-151.14;100.00;62537.16;5089479;28;20212;-84
2023/06/21 08:32:43;;;;;;;;;;;20.40;73.90;;;-151.14;100.00;62537.16;5072219;28;19927;-84
2023/06/21 08:35:11;;;;;;;;;;;20.40;73.60;;;-151.14;100.00;62537.16;5089307;28;19927;-84
2023/06/21 08:37:41;;;;;;;;;;;20.40;73.20;;;-151.14;100.00;62537.16;5089698;28;20116;-84
2023/06/21 08:40:10;;;;;;;;;;;20.40;73.20;;;-151.14;100.00;62537.16;5093055;28;20204;-84
2023/06/21 08:42:38;;;;;;;;;;;20.40;73.60;;;-151.14;100.00;62537.16;5075555;28;19920;-85
2023/06/21 08:45:06;;;;;;;;;;;20.40;73.50;;;-151.14;100.00;62537.16;5093944;28;19928;-84
2023/06/21 08:47:35;;;;;;;;;;;20.40;73.60;;;-151.14;100.00;62537.16;5092804;28;19926;-85
2023/06/21 08:50:03;;;;;;;;;;;20.40;73.30;;;-151.14;100.00;62537.16;5093001;28;19920;-84
2023/06/21 08:52:31;;;;;;;;;;;20.40;73.30;;;18.10;100.00;62537.16;5075354;28;19919;-84
2023/06/21 08:55:04;;;;;;;;;;;20.40;73.30;;;-151.14;100.00;62537.16;5092856;28;19926;-84
2023/06/21 08:57:33;;;;;;;;;;;20.30;73.40;;;-151.14;100.00;62537.16;5075600;28;19920;-84
2023/06/21 09:00:02;;;;;;;;;;;20.30;73.60;;;-151.14;100.00;62537.16;5092678;28;19920;-84
2023/06/21 09:02:36;;;;;;;;;;;20.30;73.40;;;-151.14;100.00;62537.16;5091983;28;20242;-84
2023/06/21 09:05:05;;;;;;;;;;;20.30;73.50;;;-151.14;100.00;62537.16;5092633;28;19926;-84
2023/06/21 09:07:34;;;;;;;;;;;20.30;73.50;;;-151.14;100.00;62537.16;5109605;28;19926;-84
2023/06/21 09:10:03;;;;;;;;;;;20.30;73.50;;;-151.14;100.00;62537.16;5092615;28;19920;-85
2023/06/21 09:12:31;;;;;;;;;;;20.30;73.50;;;-151.14;100.00;62537.16;5074934;28;19942;-84
2023/06/21 09:14:59;;;;;;;;;;;20.30;73.50;;;-151.14;100.00;62537.16;5075783;28;19920;-84
2023/06/21 09:17:27;;;;;;;;;;;20.30;73.70;;;-151.14;100.00;62537.16;5093625;28;20212;-84
2023/06/21 09:19:56;;;;;;;;;;;20.30;73.70;;;-151.14;100.00;62537.16;5075595;28;20245;-84
2023/06/21 09:22:25;;;;;;;;;;;20.20;73.60;;;-151.14;100.00;62537.16;5108509;28;19924;-83
2023/06/21 09:24:53;;;;;;;;;;;20.20;73.60;;;-151.14;100.00;62537.16;5092240;28;19926;-84
2023/06/21 09:27:22;;;;;;;;;;;20.30;74.30;;;-151.14;100.00;62537.16;5092137;28;19921;-84
2023/06/21 09:29:50;;;;;;;;;;;20.30;73.90;;;-151.14;100.00;62537.16;5092302;28;19921;-84
2023/06/21 09:32:18;;;;;;;;;;;20.30;74.10;;;-151.14;100.00;62537.16;5091368;28;19920;-84
2023/06/21 09:34:46;;;;;;;;;;;20.30;73.90;;;-151.14;100.00;62537.16;5092005;28;19932;-84
2023/06/21 09:37:32;;;;;;;;;;;20.30;73.70;;;-151.14;100.00;62537.16;5093192;28;19920;-84
2023/06/21 09:40:00;;;;;;;;;;;20.30;73.80;;;28.66;100.00;62537.16;5075455;28;19926;-85
2023/06/21 09:42:30;;;;;;;;;;;20.30;73.70;;;-151.14;100.00;62537.16;5091443;28;19920;-84
2023/06/21 09:44:58;;;;;;;;;;;20.30;73.60;;;-151.14;100.00;62537.16;5092015;28;19927;-84
2023/06/21 09:47:30;;;;;;;;;;;20.40;73.60;;;19.59;100.00;62537.16;5075083;28;19920;-85
2023/06/21 09:49:58;;;;;;;;;;;20.30;73.50;;;-151.14;100.00;62537.16;5091706;28;19927;-84
2023/06/21 09:52:26;;;;;;;;;;;20.40;73.60;;;-151.14;100.00;62537.16;5091155;28;19928;-84
2023/06/21 09:54:56;;;;;;;;;;;20.30;73.70;;;39.25;100.00;62537.16;5091993;28;19927;-84
2023/06/21 09:57:29;;;;;;;;;;;20.30;73.90;;;-151.14;100.00;62537.16;5071485;28;19921;-85
2023/06/21 09:59:58;;;;;;;;;;;20.30;74.20;;;19.58;100.00;83833.41;5055007;28;19943;-84
2023/06/21 10:02:26;;;;;;;;;;;20.30;73.90;;;-151.14;100.00;62537.16;5070988;28;19921;-84
2023/06/21 10:04:55;;;;;;;;;;;20.30;73.80;;;-151.14;100.00;62537.16;5072641;28;19920;-84
2023/06/21 10:07:24;;;;;;;;;;;20.30;73.90;;;18.08;100.00;62537.16;5071537;28;19927;-85
2023/06/21 10:09:53;;;;;;;;;;;20.30;73.90;;;-151.14;100.00;62537.16;5071484;28;19921;-84
2023/06/21 10:12:20;;;;;;;;;;;20.30;73.80;;;-151.14;100.00;62537.16;5071799;28;19921;-84
2023/06/21 10:14:51;;;;;;;;;;;20.30;74.00;;;-151.14;100.00;62537.16;5054393;28;20230;-84
2023/06/21 10:17:19;;;;;;;;;;;20.20;74.00;;;-151.14;100.00;62537.16;5071532;28;19920;-84
2023/06/21 10:19:47;;;;;;;;;;;20.20;74.00;;;-151.14;100.00;62537.16;5054763;28;20093;-85
2023/06/21 10:22:18;;;;;;;;;;;20.20;74.40;;;-151.14;100.00;62537.16;5071756;28;20204;-84
2023/06/21 10:24:47;;;;;;;;;;;20.20;74.40;;;19.50;100.00;62537.16;5071143;28;19927;-84
2023/06/21 10:27:16;;;;;;;;;;;20.20;74.00;;;19.51;100.00;62537.16;5071270;28;19934;-84
2023/06/21 10:29:44;;;;;;;;;;;20.20;74.00;;;-151.14;100.00;62537.16;5087895;28;19921;-84
2023/06/21 10:32:13;;;;;;;;;;;20.20;74.10;;;-151.14;100.00;62537.16;5083988;28;19942;-84
2023/06/21 10:34:49;;;;;;;;;;;20.20;74.20;;;19.46;100.00;62537.16;5074337;28;19920;-85
2023/06/21 10:37:23;;;;;;;;;;;20.20;74.20;;;18.16;100.00;62537.16;5074326;28;19920;-84
2023/06/21 10:39:53;;;;;;;;;;;20.20;74.30;;;19.45;100.00;62537.16;5074399;28;19927;-84
2023/06/21 10:42:21;;;;;;;;;;;20.20;74.30;;;-151.14;100.00;62537.16;5090574;28;19920;-84
2023/06/21 10:44:49;;;;;;;;;;;20.20;74.20;;;-151.14;100.00;62537.16;5074212;28;19926;-84
2023/06/21 10:47:19;;;;;;;;;;;20.20;74.40;;;-151.14;100.00;62537.16;5074224;28;20223;-84
2023/06/21 10:49:48;;;;;;;;;;;20.20;74.40;;;18.08;100.00;62537.16;5090837;28;20208;-84
2023/06/21 10:52:16;;;;;;;;;;;20.20;74.50;;;-151.14;100.00;62537.16;5090320;28;19943;-85
2023/06/21 10:54:44;;;;;;;;;;;20.20;74.50;;;-151.14;100.00;62537.16;5107917;28;19920;-84
2023/06/21 10:57:12;;;;;;;;;;;20.20;74.50;;;-151.14;100.00;62537.16;5074145;28;20233;-84
2023/06/21 10:59:40;;;;;;;;;;;20.20;74.40;;;-151.14;100.00;62537.16;5090688;28;19942;-85
2023/06/21 11:02:08;;;;;;;;;;;20.20;74.40;;;-151.14;100.00;62537.16;5089563;28;20089;-84
2023/06/21 11:05:10;;;;;;;;;;;20.20;74.40;;;-151.14;100.00;62537.16;5090605;28;20135;-85
2023/06/21 11:07:39;;;;;;;;;;;20.20;74.40;;;-151.14;100.00;62537.16;5107824;28;19926;-85